createdAt,value
2018-11-28T00:02:13.108Z,19.48
2018-11-28T00:04:41.367Z,20.37
2018-11-28T00:07:09.484Z,20.08
2018-11-28T00:09:37.686Z,21.00
2018-11-28T00:12:05.856Z,20.92
2018-11-28T00:14:34.060Z,20.77
2018-11-28T00:17:02.232Z,19.00
2018-11-28T00:19:30.434Z,20.12
2018-11-28T00:21:58.600Z,20.43
2018-11-28T00:24:26.819Z,19.82
2018-11-28T00:26:54.998Z,20.60
2018-11-28T00:29:23.164Z,19.35
2018-11-28T00:31:51.368Z,19.92
2018-11-28T00:34:19.537Z,19.35
2018-11-28T00:36:47.740Z,19.73
2018-11-28T00:39:15.911Z,18.07
2018-11-28T00:41:44.109Z,18.60
2018-11-28T00:44:12.285Z,18.90
2018-11-28T00:46:40.489Z,18.82
2018-11-28T00:49:08.663Z,20.17
2018-11-28T00:51:36.859Z,20.10
2018-11-28T00:54:05.216Z,20.02
2018-11-28T00:56:33.340Z,20.30
2018-11-28T00:59:01.520Z,20.32
2018-11-28T01:01:29.706Z,19.98
2018-11-28T01:03:57.881Z,18.57
2018-11-28T01:06:26.080Z,20.02
2018-11-28T01:08:54.263Z,20.10
2018-11-28T01:11:22.456Z,20.20
2018-11-28T01:13:50.636Z,20.92
2018-11-28T01:16:18.833Z,19.90
2018-11-28T01:18:47.015Z,19.23
2018-11-28T01:21:15.204Z,19.85
2018-11-28T01:23:43.380Z,19.95
2018-11-28T01:26:11.625Z,19.77
2018-11-28T01:28:39.756Z,19.45
2018-11-28T01:31:07.961Z,19.62
2018-11-28T01:33:36.132Z,18.92
2018-11-28T01:36:04.716Z,18.55
2018-11-28T01:38:32.807Z,20.08
2018-11-28T01:41:01.008Z,18.02
2018-11-28T01:43:29.193Z,19.27
2018-11-28T01:45:57.369Z,18.20
2018-11-28T01:48:25.563Z,18.92
2018-11-28T01:50:53.739Z,19.55
2018-11-28T01:53:21.940Z,19.40
2018-11-28T01:55:50.112Z,18.35
2018-11-28T01:58:18.307Z,19.52
2018-11-28T02:00:46.499Z,19.60
2018-11-28T02:03:14.693Z,18.10
2018-11-28T02:05:42.867Z,19.48
2018-11-28T02:08:11.061Z,18.42
2018-11-28T02:10:39.237Z,19.12
2018-11-28T02:13:07.440Z,19.90
2018-11-28T02:15:35.613Z,19.57
2018-11-28T02:18:03.808Z,19.02
2018-11-28T02:20:31.993Z,17.92
2018-11-28T02:23:00.395Z,18.48
2018-11-28T02:25:28.565Z,17.77
2018-11-28T02:27:56.769Z,17.52
2018-11-28T02:30:24.973Z,17.52
2018-11-28T02:32:53.135Z,17.48
2018-11-28T02:35:21.327Z,18.05
2018-11-28T02:37:49.733Z,18.30
2018-11-28T02:40:18.689Z,16.35
2018-11-28T02:42:47.503Z,17.02
2018-11-28T02:45:18.644Z,17.42
2018-11-28T02:47:46.806Z,16.77
2018-11-28T02:50:14.978Z,16.87
2018-11-28T02:52:43.144Z,18.07
2018-11-28T02:55:13.043Z,18.15
2018-11-28T02:57:42.141Z,17.55
2018-11-28T03:00:13.744Z,16.97
2018-11-28T03:02:41.831Z,18.07
2018-11-28T03:05:11.416Z,16.50
2018-11-28T03:07:39.556Z,17.60
2018-11-28T03:10:13.655Z,17.77
2018-11-28T03:12:41.854Z,17.45
2018-11-28T03:15:11.868Z,17.25
2018-11-28T03:17:40.065Z,17.25
2018-11-28T03:20:09.664Z,17.92
2018-11-28T03:22:37.774Z,18.05
2018-11-28T03:25:07.560Z,17.00
2018-11-28T03:27:35.688Z,18.23
2018-11-28T03:30:05.280Z,15.63
2018-11-28T03:32:33.361Z,18.07
2018-11-28T03:35:01.481Z,16.12
2018-11-28T03:37:29.635Z,18.27
2018-11-28T03:39:57.727Z,17.55
2018-11-28T03:42:25.900Z,17.48
2018-11-28T03:44:53.983Z,17.52
2018-11-28T03:47:22.082Z,17.52
2018-11-28T03:49:50.268Z,16.60
2018-11-28T03:52:18.440Z,17.85
2018-11-28T03:54:46.646Z,16.85
2018-11-28T03:57:14.728Z,16.77
2018-11-28T03:59:42.908Z,16.50
2018-11-28T04:02:10.993Z,16.87
2018-11-28T04:04:39.187Z,16.42
2018-11-28T04:07:07.262Z,16.52
2018-11-28T04:09:35.352Z,18.12
2018-11-28T04:12:03.537Z,16.55
2018-11-28T04:14:31.634Z,15.05
2018-11-28T04:16:59.815Z,15.80
2018-11-28T04:19:28.000Z,15.93
2018-11-28T04:21:56.177Z,18.30
2018-11-28T04:24:24.269Z,17.95
2018-11-28T04:26:52.448Z,17.70
2018-11-28T04:29:20.544Z,17.27
2018-11-28T04:31:48.747Z,16.62
2018-11-28T04:34:16.945Z,17.87
2018-11-28T04:36:45.125Z,17.50
2018-11-28T04:39:13.316Z,19.35
2018-11-28T04:41:41.501Z,19.20
2018-11-28T04:44:09.682Z,18.27
2018-11-28T04:46:37.886Z,18.77
2018-11-28T04:49:06.060Z,18.87
2018-11-28T04:51:34.245Z,19.00
2018-11-28T04:54:02.433Z,17.98
2018-11-28T04:56:30.623Z,20.20
2018-11-28T04:58:58.791Z,16.62
2018-11-28T05:01:26.992Z,16.77
2018-11-28T05:03:55.360Z,16.75
2018-11-28T05:06:34.933Z,18.07
2018-11-28T05:09:03.144Z,18.90
2018-11-28T05:11:31.324Z,16.87
2018-11-28T05:13:59.508Z,18.07
2018-11-28T05:16:27.688Z,17.20
2018-11-28T05:18:55.868Z,17.40
2018-11-28T05:21:24.060Z,17.62
2018-11-28T05:23:52.248Z,18.70
2018-11-28T05:26:20.445Z,17.25
2018-11-28T05:28:48.629Z,18.73
2018-11-28T05:31:16.824Z,17.82
2018-11-28T05:33:45.003Z,20.02
2018-11-28T05:36:13.192Z,19.12
2018-11-28T05:38:41.364Z,19.85
2018-11-28T05:41:09.564Z,18.07
2018-11-28T05:43:37.740Z,18.37
2018-11-28T05:46:06.164Z,18.35
2018-11-28T05:48:34.316Z,19.10
2018-11-28T05:51:03.437Z,17.35
2018-11-28T05:53:31.608Z,18.02
2018-11-28T05:55:59.803Z,17.55
2018-11-28T05:58:27.988Z,18.20
2018-11-28T06:00:56.176Z,17.90
2018-11-28T06:03:24.360Z,18.02
2018-11-28T06:05:52.552Z,17.55
2018-11-28T06:08:20.742Z,18.92
2018-11-28T06:10:48.939Z,17.73
2018-11-28T06:13:17.104Z,17.87
2018-11-28T06:15:45.308Z,17.92
2018-11-28T06:18:13.484Z,17.98
2018-11-28T06:20:41.677Z,17.95
2018-11-28T06:23:09.880Z,18.98
2018-11-28T06:25:38.048Z,17.87
2018-11-28T06:28:06.240Z,19.02
2018-11-28T06:30:34.449Z,19.20
2018-11-28T06:33:02.616Z,19.52
2018-11-28T06:35:30.792Z,18.87
2018-11-28T06:37:58.989Z,18.32
2018-11-28T06:40:27.172Z,17.57
2018-11-28T06:42:55.368Z,18.02
2018-11-28T06:45:23.536Z,18.90
2018-11-28T06:47:51.736Z,18.75
2018-11-28T06:50:20.151Z,17.37
2018-11-28T06:52:49.400Z,18.25
2018-11-28T06:55:19.519Z,18.42
2018-11-28T06:57:47.670Z,22.20
2018-11-28T07:00:16.824Z,20.62
2018-11-28T07:02:45.220Z,18.65
2018-11-28T07:05:13.424Z,19.87
2018-11-28T07:07:41.837Z,17.42
2018-11-28T07:10:14.888Z,18.65
2018-11-28T07:12:43.036Z,17.55
2018-11-28T07:15:14.140Z,18.67
2018-11-28T07:17:42.744Z,18.57
2018-11-28T07:20:11.848Z,19.27
2018-11-28T07:22:39.973Z,18.00
2018-11-28T07:25:09.656Z,18.90
2018-11-28T07:27:37.780Z,18.77
2018-11-28T07:30:11.973Z,17.65
2018-11-28T07:32:40.193Z,19.52
2018-11-28T07:35:09.065Z,18.52
2018-11-28T07:37:37.251Z,19.32
2018-11-28T07:40:17.563Z,17.82
2018-11-28T07:43:16.771Z,18.67
2018-11-28T07:45:49.288Z,18.70
2018-11-28T07:48:17.460Z,18.60
2018-11-28T07:50:45.628Z,21.48
2018-11-28T07:53:13.724Z,22.27
2018-11-28T07:55:41.916Z,24.47
2018-11-28T07:58:10.097Z,19.10
2018-11-28T08:00:38.432Z,19.37
2018-11-28T08:03:07.855Z,19.05
2018-11-28T08:05:37.172Z,19.27
2018-11-28T08:08:06.896Z,18.65
2018-11-28T08:10:35.056Z,18.12
2018-11-28T08:13:03.236Z,18.62
2018-11-28T08:15:31.396Z,19.40
2018-11-28T08:17:59.583Z,19.42
2018-11-28T08:20:27.697Z,20.60
2018-11-28T08:22:55.853Z,18.40
2018-11-28T08:25:27.657Z,19.70
2018-11-28T08:27:52.254Z,19.73
2018-11-28T08:30:25.408Z,19.20
2018-11-28T08:32:54.296Z,19.65
2018-11-28T08:35:22.449Z,19.07
2018-11-28T08:37:50.632Z,20.23
2018-11-28T08:40:21.007Z,19.77
2018-11-28T08:42:49.168Z,19.35
2018-11-28T08:45:18.287Z,19.00
2018-11-28T08:47:47.418Z,20.97
2018-11-28T08:50:17.773Z,18.50
2018-11-28T08:52:45.872Z,21.37
2018-11-28T08:55:14.337Z,20.55
2018-11-28T08:57:42.520Z,22.55
2018-11-28T09:00:18.247Z,21.73
2018-11-28T09:02:50.148Z,21.73
2018-11-28T09:05:18.280Z,20.52
2018-11-28T09:07:46.474Z,21.62
2018-11-28T09:10:16.352Z,22.30
2018-11-28T09:12:45.044Z,22.30
2018-11-28T09:15:31.362Z,20.00
2018-11-28T09:17:58.975Z,20.65
2018-11-28T09:20:27.156Z,20.95
2018-11-28T09:22:55.344Z,20.08
2018-11-28T09:25:23.601Z,21.00
2018-11-28T09:27:53.688Z,21.68
2018-11-28T09:30:21.793Z,21.45
2018-11-28T09:32:50.460Z,21.80
2018-11-28T09:35:19.018Z,22.00
2018-11-28T09:37:47.145Z,20.57
2018-11-28T09:40:16.504Z,22.37
2018-11-28T09:42:44.636Z,21.57
2018-11-28T09:45:13.908Z,22.65
2018-11-28T09:47:42.035Z,21.07
2018-11-28T09:50:13.352Z,21.90
2018-11-28T09:52:41.505Z,20.88
2018-11-28T09:55:12.192Z,22.07
2018-11-28T09:57:40.316Z,22.02
2018-11-28T10:00:15.233Z,21.68
2018-11-28T10:02:43.344Z,22.73
2018-11-28T10:05:13.840Z,20.15
2018-11-28T10:07:41.948Z,21.93
2018-11-28T10:10:11.328Z,22.07
2018-11-28T10:12:39.460Z,21.95
2018-11-28T10:15:16.617Z,22.55
2018-11-28T10:17:44.834Z,21.80
2018-11-28T10:20:13.704Z,20.35
2018-11-28T10:22:42.003Z,22.40
2018-11-28T10:25:27.916Z,21.97
2018-11-28T10:28:02.453Z,22.40
2018-11-28T10:30:31.849Z,22.52
2018-11-28T10:33:00.100Z,22.60
2018-11-28T10:35:28.365Z,22.80
2018-11-28T10:37:56.540Z,23.52
2018-11-28T10:40:25.003Z,21.87
2018-11-28T10:42:55.247Z,22.35
2018-11-28T10:45:24.352Z,22.48
2018-11-28T10:47:52.472Z,23.52
2018-11-28T10:50:20.548Z,21.40
2018-11-28T10:52:48.636Z,22.30
2018-11-28T10:55:18.842Z,22.10
2018-11-28T10:57:46.976Z,21.70
2018-11-28T11:00:26.433Z,22.58
2018-11-28T11:02:59.876Z,22.67
2018-11-28T11:05:33.452Z,22.15
2018-11-28T11:08:07.082Z,22.32
2018-11-28T11:10:40.789Z,21.73
2018-11-28T11:13:14.368Z,21.62
2018-11-28T11:15:42.462Z,20.65
2018-11-28T11:18:11.552Z,21.40
2018-11-28T11:20:39.752Z,23.35
2018-11-28T11:23:08.544Z,22.30
2018-11-28T11:25:36.661Z,22.65
2018-11-28T11:28:05.020Z,22.35
2018-11-28T11:30:33.155Z,22.70
2018-11-28T11:33:01.344Z,20.97
2018-11-28T11:35:29.419Z,22.20
2018-11-28T11:37:57.604Z,21.35
2018-11-28T11:40:25.773Z,21.27
2018-11-28T11:42:53.950Z,21.77
2018-11-28T11:45:22.038Z,22.15
2018-11-28T11:47:50.216Z,22.20
2018-11-28T11:50:18.900Z,22.30
2018-11-28T11:52:47.071Z,22.35
2018-11-28T11:55:17.121Z,22.42
2018-11-28T11:57:45.297Z,22.67
2018-11-28T12:00:18.308Z,22.42
2018-11-28T12:02:53.352Z,22.05
2018-11-28T12:05:21.462Z,21.60
2018-11-28T12:07:49.533Z,21.12
2018-11-28T12:10:17.629Z,21.05
2018-11-28T12:12:51.513Z,20.82
2018-11-28T12:15:15.789Z,21.48
2018-11-28T12:17:45.237Z,21.12
2018-11-28T12:20:17.736Z,21.17
2018-11-28T12:22:45.968Z,21.40
2018-11-28T12:25:14.125Z,22.05
2018-11-28T12:27:42.300Z,20.10
2018-11-28T12:30:12.656Z,21.65
2018-11-28T12:32:40.852Z,36.60
2018-11-28T12:35:11.356Z,34.45
2018-11-28T12:37:39.761Z,24.52
2018-11-28T12:40:09.984Z,23.47
2018-11-28T12:42:38.072Z,22.25
2018-11-28T12:45:11.476Z,21.10
2018-11-28T12:47:39.577Z,20.30
2018-11-28T12:50:17.723Z,21.97
2018-11-28T12:52:45.884Z,22.10
2018-11-28T12:55:14.057Z,21.33
2018-11-28T12:57:42.157Z,20.85
2018-11-28T13:00:12.732Z,21.48
2018-11-28T13:02:40.930Z,23.50
2018-11-28T13:05:13.763Z,22.67
2018-11-28T13:07:41.863Z,21.87
2018-11-28T13:10:16.149Z,21.97
2018-11-28T13:12:44.767Z,22.95
2018-11-28T13:15:14.812Z,23.20
2018-11-28T13:17:42.976Z,21.95
2018-11-28T13:20:12.424Z,22.07
2018-11-28T13:22:40.552Z,23.18
2018-11-28T13:25:11.061Z,22.40
2018-11-28T13:27:39.244Z,21.60
2018-11-28T13:30:13.256Z,20.80
2018-11-28T13:32:41.852Z,22.37
2018-11-28T13:35:10.783Z,22.05
2018-11-28T13:37:38.956Z,21.97
2018-11-28T13:40:09.272Z,22.85
2018-11-28T13:42:37.396Z,22.00
2018-11-28T13:45:09.531Z,21.60
2018-11-28T13:47:37.652Z,21.17
2018-11-28T13:50:07.450Z,21.45
2018-11-28T13:52:35.560Z,20.20
2018-11-28T13:57:34.296Z,20.88
2018-11-28T14:00:02.464Z,21.02
2018-11-28T14:02:30.763Z,20.02
2018-11-28T14:04:58.945Z,19.87
2018-11-28T14:07:27.159Z,21.30
2018-11-28T14:09:55.344Z,19.45
2018-11-28T14:12:23.584Z,21.12
2018-11-28T14:14:51.712Z,21.37
2018-11-28T14:17:19.908Z,20.43
2018-11-28T14:19:48.097Z,21.15
2018-11-28T14:22:16.284Z,20.88
2018-11-28T14:24:44.459Z,20.52
2018-11-28T14:27:12.660Z,19.98
2018-11-28T14:29:40.842Z,20.23
2018-11-28T14:32:09.035Z,20.37
2018-11-28T14:34:37.221Z,18.75
2018-11-28T14:37:05.996Z,19.90
2018-11-28T14:39:34.200Z,20.90
2018-11-28T14:42:02.392Z,18.92
2018-11-28T14:44:30.576Z,20.43
2018-11-28T14:46:58.764Z,20.12
2018-11-28T14:49:26.968Z,18.92
2018-11-28T14:51:55.131Z,20.65
2018-11-28T14:54:23.326Z,20.43
2018-11-28T14:56:51.511Z,19.55
2018-11-28T14:59:19.700Z,19.45
2018-11-28T15:01:48.948Z,18.70
2018-11-28T15:04:16.081Z,21.75
2018-11-28T15:06:51.477Z,20.88
2018-11-28T15:09:25.341Z,19.50
2018-11-28T15:11:53.513Z,20.77
2018-11-28T15:14:21.592Z,20.25
2018-11-28T15:16:49.676Z,19.65
2018-11-28T15:19:17.791Z,20.02
2018-11-28T15:21:45.867Z,20.68
2018-11-28T15:24:14.037Z,18.73
2018-11-28T15:26:42.228Z,18.73
2018-11-28T15:29:10.410Z,19.95
2018-11-28T15:31:38.495Z,19.67
2018-11-28T15:34:07.032Z,17.92
2018-11-28T15:36:35.152Z,19.40
2018-11-28T15:39:03.510Z,18.60
2018-11-28T15:41:31.644Z,18.95
2018-11-28T15:43:59.742Z,21.17
2018-11-28T15:46:27.916Z,19.67
2018-11-28T15:48:56.009Z,19.45
2018-11-28T15:51:24.184Z,17.67
2018-11-28T15:53:52.281Z,18.82
2018-11-28T15:56:20.469Z,19.62
2018-11-28T15:58:48.568Z,20.88
2018-11-28T16:01:16.733Z,19.10
2018-11-28T16:03:44.835Z,20.45
2018-11-28T16:06:13.011Z,19.57
2018-11-28T16:08:41.193Z,18.12
2018-11-28T16:11:11.717Z,18.92
2018-11-28T16:13:39.822Z,19.65
2018-11-28T16:16:08.158Z,18.77
2018-11-28T16:18:36.312Z,18.50
2018-11-28T16:21:04.498Z,19.87
2018-11-28T16:23:32.665Z,18.77
2018-11-28T16:26:00.895Z,18.50
2018-11-28T16:28:29.056Z,18.27
2018-11-28T16:30:57.247Z,19.48
2018-11-28T16:33:25.467Z,20.08
2018-11-28T16:35:53.625Z,20.40
2018-11-28T16:38:21.816Z,19.15
2018-11-28T16:40:50.048Z,17.50
2018-11-28T16:43:18.178Z,17.23
2018-11-28T16:45:46.384Z,18.05
2018-11-28T16:48:14.543Z,18.05
2018-11-28T16:50:42.736Z,18.25
2018-11-28T16:53:10.942Z,17.42
2018-11-28T16:55:39.140Z,17.27
2018-11-28T16:58:07.916Z,18.20
2018-11-28T17:00:38.072Z,17.37
2018-11-28T17:03:06.236Z,18.57
2018-11-28T17:05:34.420Z,17.65
2018-11-28T17:08:02.653Z,17.87
2018-11-28T17:10:30.960Z,17.27
2018-11-28T17:12:59.680Z,17.80
2018-11-28T17:15:27.811Z,18.95
2018-11-28T17:17:56.036Z,16.50
2018-11-28T17:20:25.264Z,18.12
2018-11-28T17:22:54.477Z,17.82
2018-11-28T17:25:24.715Z,18.10
2018-11-28T17:27:52.846Z,16.85
2018-11-28T17:30:22.312Z,17.62
2018-11-28T17:32:50.456Z,17.98
2018-11-28T17:35:18.641Z,15.75
2018-11-28T17:37:46.812Z,16.82
2018-11-28T17:40:15.967Z,18.20
2018-11-28T17:42:45.260Z,17.12
2018-11-28T17:45:14.365Z,18.25
2018-11-28T17:47:42.555Z,17.27
2018-11-28T17:50:18.806Z,16.87
2018-11-28T17:52:52.992Z,16.20
2018-11-28T17:55:21.104Z,17.00
2018-11-28T17:57:49.300Z,16.75
2018-11-28T18:00:18.924Z,17.27
2018-11-28T18:02:47.118Z,17.48
2018-11-28T18:05:15.286Z,16.97
2018-11-28T18:07:43.505Z,15.70
2018-11-28T18:10:13.056Z,16.10
2018-11-28T18:12:52.695Z,16.65
2018-11-28T18:15:21.216Z,16.75
2018-11-28T18:17:49.510Z,17.65
2018-11-28T18:20:17.620Z,16.45
2018-11-28T18:22:45.824Z,16.73
2018-11-28T18:25:14.007Z,16.42
2018-11-28T18:27:42.192Z,16.85
2018-11-28T18:30:11.673Z,15.98
2018-11-28T18:32:39.813Z,15.58
2018-11-28T18:35:09.476Z,15.72
2018-11-28T18:37:37.841Z,15.15
2018-11-28T18:40:09.489Z,15.60
2018-11-28T18:42:37.684Z,15.13
2018-11-28T18:45:12.080Z,14.23
2018-11-28T18:47:40.279Z,14.25
2018-11-28T18:50:09.671Z,17.02
2018-11-28T18:52:37.928Z,20.45
2018-11-28T18:55:08.596Z,16.50
2018-11-28T18:57:36.736Z,15.45
2018-11-28T19:00:08.656Z,15.45
2018-11-28T19:02:36.788Z,14.73
2018-11-28T19:05:05.554Z,15.23
2018-11-28T19:07:34.473Z,15.60
2018-11-28T19:10:01.824Z,14.63
2018-11-28T19:12:30.000Z,15.75
2018-11-28T19:14:58.119Z,13.78
2018-11-28T19:17:26.292Z,14.80
2018-11-28T19:19:54.466Z,13.88
2018-11-28T19:22:22.658Z,14.20
2018-11-28T19:24:50.877Z,13.43
2018-11-28T19:27:19.048Z,13.72
2018-11-28T19:29:47.225Z,15.30
2018-11-28T19:32:15.404Z,14.73
2018-11-28T19:34:43.589Z,14.83
2018-11-28T19:37:11.754Z,15.25
2018-11-28T19:39:39.844Z,15.13
2018-11-28T19:42:07.979Z,15.50
2018-11-28T19:44:36.128Z,15.20
2018-11-28T19:47:04.228Z,14.35
2018-11-28T19:49:32.428Z,14.53
2018-11-28T19:52:00.594Z,14.95
2018-11-28T19:54:28.819Z,14.45
2018-11-28T19:56:56.961Z,14.40
2018-11-28T19:59:25.151Z,13.85
2018-11-28T20:01:53.245Z,15.00
2018-11-28T20:04:21.467Z,14.93
2018-11-28T20:06:49.510Z,15.18
2018-11-28T20:09:19.576Z,16.20
2018-11-28T20:11:47.728Z,15.15
2018-11-28T20:14:15.901Z,15.53
2018-11-28T20:16:44.003Z,15.88
2018-11-28T20:19:17.409Z,16.62
2018-11-28T20:21:40.262Z,15.15
2018-11-28T20:24:08.349Z,16.67
2018-11-28T20:26:36.432Z,15.75
2018-11-28T20:29:04.872Z,15.72
2018-11-28T20:31:33.021Z,15.40
2018-11-28T20:34:01.188Z,15.35
2018-11-28T20:36:29.285Z,15.58
2018-11-28T20:38:57.372Z,16.67
2018-11-28T20:41:25.588Z,15.18
2018-11-28T20:43:53.744Z,15.38
2018-11-28T20:46:21.927Z,16.23
2018-11-28T20:48:50.016Z,15.50
2018-11-28T20:51:18.197Z,15.48
2018-11-28T20:53:46.277Z,15.15
2018-11-28T20:56:14.356Z,15.72
2018-11-28T20:58:42.453Z,15.60
2018-11-28T21:01:10.533Z,15.75
2018-11-28T21:03:38.616Z,16.15
2018-11-28T21:06:06.699Z,16.00
2018-11-28T21:08:34.796Z,15.00
2018-11-28T21:11:02.977Z,15.32
2018-11-28T21:13:31.067Z,16.12
2018-11-28T21:15:59.236Z,15.55
2018-11-28T21:18:27.337Z,15.95
2018-11-28T21:20:55.415Z,17.00
2018-11-28T21:23:23.505Z,16.95
2018-11-28T21:25:51.589Z,17.17
2018-11-28T21:28:19.672Z,16.15
2018-11-28T21:30:47.758Z,15.45
2018-11-28T21:33:15.939Z,14.47
2018-11-28T21:35:47.894Z,15.85
2018-11-28T21:38:16.016Z,16.15
2018-11-28T21:40:44.196Z,14.98
2018-11-28T21:43:12.386Z,15.90
2018-11-28T21:45:40.561Z,16.02
2018-11-28T21:48:08.659Z,16.40
2018-11-28T21:50:36.833Z,15.53
2018-11-28T21:53:06.428Z,16.07
2018-11-28T21:55:34.548Z,16.52
2018-11-28T21:58:02.803Z,16.37
2018-11-28T22:00:31.124Z,16.93
2018-11-28T22:02:59.291Z,15.93
2018-11-28T22:05:27.387Z,17.23
2018-11-28T22:07:55.572Z,16.60
2018-11-28T22:10:24.723Z,17.35
2018-11-28T22:12:53.563Z,18.20
2018-11-28T22:15:21.679Z,19.07
2018-11-28T22:17:52.704Z,19.15
2018-11-28T22:20:20.847Z,18.98
2018-11-28T22:22:48.990Z,18.25
2018-11-28T22:25:19.935Z,17.70
2018-11-28T22:27:48.033Z,18.00
2018-11-28T22:30:18.255Z,17.48
2018-11-28T22:32:46.348Z,17.27
2018-11-28T22:35:14.447Z,18.48
2018-11-28T22:37:42.624Z,19.77
2018-11-28T22:40:15.001Z,19.73
2018-11-28T22:42:43.091Z,20.23
2018-11-28T22:45:16.399Z,18.95
2018-11-28T22:47:44.493Z,18.82
2018-11-28T22:50:13.059Z,19.85
2018-11-28T22:52:41.177Z,19.55
2018-11-28T22:55:13.535Z,21.35
2018-11-28T22:57:41.646Z,19.42
2018-11-28T23:00:23.172Z,20.08
2018-11-28T23:02:52.525Z,18.60
2018-11-28T23:05:21.735Z,21.07
2018-11-28T23:07:49.874Z,20.37
2018-11-28T23:10:18.065Z,20.52
2018-11-28T23:12:46.256Z,21.15
2018-11-28T23:15:14.458Z,19.75
2018-11-28T23:17:42.624Z,20.32
2018-11-28T23:20:10.825Z,20.50
2018-11-28T23:22:38.999Z,20.32
2018-11-28T23:25:09.085Z,20.32
2018-11-28T23:27:37.292Z,19.67
2018-11-28T23:30:08.637Z,19.98
2018-11-28T23:32:36.767Z,19.70
2018-11-28T23:35:06.349Z,20.00
2018-11-28T23:37:34.479Z,19.85
2018-11-28T23:40:02.664Z,20.00
2018-11-28T23:42:30.863Z,19.75
2018-11-28T23:44:59.021Z,21.42
2018-11-28T23:47:27.641Z,19.15
2018-11-28T23:49:55.933Z,19.65
2018-11-28T23:52:24.104Z,18.90
2018-11-28T23:54:52.374Z,20.85
2018-11-28T23:57:20.476Z,18.85
2018-11-28T23:59:48.673Z,20.57
